createdAt,value
2023-06-29T00:01:02.665Z,15.95
2023-06-29T00:03:29.392Z,15.90
2023-06-29T00:05:59.819Z,15.83
2023-06-29T00:08:26.888Z,15.77
2023-06-29T00:10:53.658Z,15.69
2023-06-29T00:13:20.600Z,15.65
2023-06-29T00:15:49.305Z,15.65
2023-06-29T00:18:16.265Z,15.65
2023-06-29T00:20:43.260Z,15.63
2023-06-29T00:23:09.938Z,15.61
2023-06-29T00:25:37.220Z,15.61
2023-06-29T00:28:04.071Z,15.61
2023-06-29T00:30:30.617Z,15.61
2023-06-29T00:33:00.010Z,15.64
2023-06-29T00:35:26.799Z,15.65
2023-06-29T00:37:53.361Z,15.60
2023-06-29T00:40:19.979Z,15.53
2023-06-29T00:42:46.774Z,15.45
2023-06-29T00:45:13.745Z,15.34
2023-06-29T00:47:40.567Z,15.28
2023-06-29T00:50:09.624Z,15.26
2023-06-29T00:52:36.380Z,15.24
2023-06-29T00:55:03.492Z,15.26
2023-06-29T00:57:30.826Z,15.26
2023-06-29T01:00:00.876Z,15.23
2023-06-29T01:02:31.153Z,15.19
2023-06-29T01:04:58.095Z,15.21
2023-06-29T01:07:30.077Z,15.24
2023-06-29T01:09:57.990Z,15.28
2023-06-29T01:12:24.813Z,15.29
2023-06-29T01:14:52.208Z,15.30
2023-06-29T01:17:21.033Z,15.31
2023-06-29T01:19:49.327Z,15.30
2023-06-29T01:22:19.241Z,15.29
2023-06-29T01:24:48.120Z,15.24
2023-06-29T01:27:15.436Z,15.17
2023-06-29T01:29:42.544Z,15.11
2023-06-29T01:32:11.163Z,15.05
2023-06-29T01:34:38.510Z,14.97
2023-06-29T01:37:09.729Z,14.90
2023-06-29T01:39:38.042Z,14.80
2023-06-29T01:42:08.331Z,14.74
2023-06-29T01:44:35.059Z,14.68
2023-06-29T01:47:02.045Z,14.62
2023-06-29T01:49:28.891Z,14.60
2023-06-29T01:51:55.589Z,14.55
2023-06-29T01:54:22.160Z,14.53
2023-06-29T01:56:48.857Z,14.54
2023-06-29T01:59:16.863Z,14.55
2023-06-29T02:01:44.457Z,14.51
2023-06-29T02:04:11.308Z,14.46
2023-06-29T02:06:38.020Z,14.36
2023-06-29T02:09:04.875Z,14.30
2023-06-29T02:11:31.377Z,14.26
2023-06-29T02:13:58.026Z,14.22
2023-06-29T02:16:26.330Z,14.19
2023-06-29T02:18:52.932Z,14.14
2023-06-29T02:21:20.502Z,14.14
2023-06-29T02:23:47.047Z,14.15
2023-06-29T02:26:14.270Z,14.18
2023-06-29T02:28:40.826Z,14.21
2023-06-29T02:31:07.410Z,14.23
2023-06-29T02:33:36.070Z,14.21
2023-06-29T02:36:03.787Z,14.21
2023-06-29T02:38:30.387Z,14.23
2023-06-29T02:40:57.171Z,14.25
2023-06-29T02:43:23.851Z,14.25
2023-06-29T02:45:50.487Z,14.25
2023-06-29T02:48:18.779Z,14.27
2023-06-29T02:50:46.797Z,14.31
2023-06-29T02:53:17.424Z,14.29
2023-06-29T02:55:44.617Z,14.28
2023-06-29T02:58:11.399Z,14.27
2023-06-29T03:00:38.367Z,14.23
2023-06-29T03:03:05.024Z,14.16
2023-06-29T03:05:32.298Z,14.06
2023-06-29T03:08:00.292Z,13.98
2023-06-29T03:10:27.004Z,13.95
2023-06-29T03:12:53.565Z,13.96
2023-06-29T03:15:20.152Z,13.97
2023-06-29T03:17:46.771Z,13.97
2023-06-29T03:20:14.896Z,13.98
2023-06-29T03:22:41.494Z,13.99
2023-06-29T03:25:10.248Z,14.00
2023-06-29T03:27:36.969Z,14.01
2023-06-29T03:30:04.227Z,14.03
2023-06-29T03:32:30.819Z,14.07
2023-06-29T03:34:57.430Z,14.08
2023-06-29T03:37:23.943Z,14.09
2023-06-29T03:39:50.539Z,14.07
2023-06-29T03:42:18.432Z,14.09
2023-06-29T03:44:44.984Z,14.10
2023-06-29T03:47:11.586Z,14.11
2023-06-29T03:49:38.089Z,14.12
2023-06-29T03:52:04.978Z,14.13
2023-06-29T03:54:31.526Z,14.11
2023-06-29T03:56:58.130Z,14.09
2023-06-29T03:59:26.407Z,14.04
2023-06-29T04:01:53.029Z,13.98
2023-06-29T04:04:19.592Z,13.95
2023-06-29T04:06:46.151Z,13.93
2023-06-29T04:09:13.027Z,13.91
2023-06-29T04:11:39.635Z,13.88
2023-06-29T04:14:06.508Z,13.91
2023-06-29T04:16:34.566Z,13.94
2023-06-29T04:19:01.170Z,14.01
2023-06-29T04:21:27.705Z,14.04
2023-06-29T04:23:54.215Z,14.08
2023-06-29T04:26:21.964Z,14.14
2023-06-29T04:28:48.712Z,14.21
2023-06-29T04:31:15.349Z,14.26
2023-06-29T04:33:44.294Z,14.32
2023-06-29T04:36:13.862Z,14.40
2023-06-29T04:38:40.427Z,14.47
2023-06-29T04:41:10.510Z,14.48
2023-06-29T04:43:37.908Z,14.49
2023-06-29T04:46:05.293Z,14.54
2023-06-29T04:48:38.424Z,14.58
2023-06-29T04:51:07.028Z,14.59
2023-06-29T04:53:34.134Z,14.64
2023-06-29T04:56:02.313Z,14.75
2023-06-29T04:58:29.244Z,14.86
2023-06-29T05:00:56.111Z,14.96
2023-06-29T05:03:22.984Z,15.04
2023-06-29T05:05:49.692Z,15.14
2023-06-29T05:08:17.761Z,15.23
2023-06-29T05:10:44.549Z,15.32
2023-06-29T05:13:11.104Z,15.44
2023-06-29T05:15:37.664Z,15.53
2023-06-29T05:18:04.442Z,15.60
2023-06-29T05:20:31.054Z,15.70
2023-06-29T05:22:57.732Z,15.81
2023-06-29T05:25:25.698Z,15.90
2023-06-29T05:27:52.216Z,15.97
2023-06-29T05:30:19.037Z,16.02
2023-06-29T05:32:45.590Z,16.11
2023-06-29T05:35:12.246Z,16.14
2023-06-29T05:37:38.956Z,16.19
2023-06-29T05:40:06.207Z,16.28
2023-06-29T05:42:34.285Z,16.39
2023-06-29T05:45:00.899Z,16.50
2023-06-29T05:47:27.616Z,16.61
2023-06-29T05:49:54.255Z,16.71
2023-06-29T05:52:20.751Z,16.81
2023-06-29T05:54:47.376Z,16.94
2023-06-29T05:57:13.972Z,16.97
2023-06-29T05:59:41.889Z,17.06
2023-06-29T06:02:09.503Z,17.19
2023-06-29T06:04:36.640Z,17.33
2023-06-29T06:07:03.553Z,17.44
2023-06-29T06:09:30.178Z,17.45
2023-06-29T06:11:56.854Z,17.55
2023-06-29T06:14:23.352Z,17.68
2023-06-29T06:16:51.579Z,17.81
2023-06-29T06:19:18.138Z,17.95
2023-06-29T06:21:44.724Z,18.12
2023-06-29T06:24:11.564Z,18.23
2023-06-29T06:26:38.103Z,18.34
2023-06-29T06:29:04.710Z,18.49
2023-06-29T06:31:34.809Z,18.62
2023-06-29T06:34:04.090Z,18.74
2023-06-29T06:36:31.362Z,18.87
2023-06-29T06:38:58.223Z,18.96
2023-06-29T06:41:24.807Z,19.08
2023-06-29T06:43:51.438Z,19.19
2023-06-29T06:46:18.007Z,19.32
2023-06-29T06:48:44.628Z,19.48
2023-06-29T06:51:12.549Z,19.65
2023-06-29T06:53:39.096Z,19.82
2023-06-29T06:56:05.640Z,19.94
2023-06-29T06:58:32.425Z,20.09
2023-06-29T07:00:59.402Z,20.12
2023-06-29T07:03:27.189Z,20.21
2023-06-29T07:05:57.101Z,20.31
2023-06-29T07:08:25.046Z,20.34
2023-06-29T07:10:52.703Z,20.40
2023-06-29T07:13:19.741Z,20.52
2023-06-29T07:15:47.145Z,20.66
2023-06-29T07:18:13.683Z,20.77
2023-06-29T07:25:42.700Z,21.15
2023-06-29T07:28:09.468Z,21.20
2023-06-29T07:30:36.407Z,21.28
2023-06-29T07:33:03.213Z,21.40
2023-06-29T07:35:30.075Z,21.64
2023-06-29T07:37:56.647Z,21.89
2023-06-29T07:40:23.258Z,22.09
2023-06-29T07:42:51.171Z,22.24
2023-06-29T07:45:17.865Z,22.32
2023-06-29T07:47:44.488Z,22.43
2023-06-29T07:50:11.943Z,22.52
2023-06-29T07:52:39.023Z,22.69
2023-06-29T07:55:05.768Z,22.73
2023-06-29T08:00:04.034Z,23.05
2023-06-29T08:02:46.364Z,23.28
2023-06-29T08:07:43.589Z,23.37
2023-06-29T08:10:10.634Z,23.40
2023-06-29T08:12:37.257Z,23.39
2023-06-29T08:15:05.714Z,23.47
2023-06-29T08:17:32.329Z,23.71
2023-06-29T08:19:59.014Z,23.94
2023-06-29T08:22:25.605Z,24.14
2023-06-29T08:24:52.533Z,24.32
2023-06-29T08:27:20.706Z,24.38
2023-06-29T08:29:47.337Z,24.44
2023-06-29T08:32:15.649Z,24.53
2023-06-29T08:34:42.776Z,24.66
2023-06-29T08:37:09.354Z,24.80
2023-06-29T08:39:35.901Z,24.93
2023-06-29T08:42:05.144Z,24.98
2023-06-29T08:44:34.765Z,25.10
2023-06-29T08:47:02.692Z,25.25
2023-06-29T08:49:34.286Z,25.45
2023-06-29T08:52:03.948Z,25.59
2023-06-29T08:54:32.721Z,25.67
2023-06-29T08:57:00.369Z,25.74
2023-06-29T08:59:27.616Z,25.81
2023-06-29T09:01:54.314Z,26.01
2023-06-29T09:04:21.276Z,26.16
2023-06-29T09:06:49.301Z,26.19
2023-06-29T09:09:18.115Z,26.30
2023-06-29T09:11:44.676Z,26.44
2023-06-29T09:14:11.326Z,26.55
2023-06-29T09:16:49.567Z,26.63
2023-06-29T09:19:16.130Z,26.71
2023-06-29T09:21:45.101Z,26.84
2023-06-29T09:24:14.287Z,26.95
2023-06-29T09:26:41.299Z,26.99
2023-06-29T09:29:07.958Z,27.15
2023-06-29T09:31:36.809Z,27.17
2023-06-29T09:34:21.413Z,27.18
2023-06-29T09:36:48.585Z,27.21
2023-06-29T09:39:21.889Z,27.32
2023-06-29T09:41:49.780Z,27.42
2023-06-29T09:44:23.310Z,27.49
2023-06-29T09:49:23.572Z,27.73
2023-06-29T09:58:32.279Z,28.09
2023-06-29T10:09:10.097Z,28.63
2023-06-29T10:11:42.301Z,28.65
2023-06-29T10:17:24.535Z,28.70
2023-06-29T23:24:07.733Z,22.93
2023-06-29T23:30:10.387Z,22.90
2023-06-29T23:32:40.186Z,22.90
2023-06-29T23:37:48.563Z,22.83
2023-06-29T23:40:16.300Z,22.77
2023-06-29T23:42:45.956Z,22.70
2023-06-29T23:45:13.004Z,22.62
2023-06-29T23:47:41.573Z,22.57
2023-06-29T23:50:11.327Z,22.51
2023-06-29T23:52:39.428Z,22.47
2023-06-29T23:55:07.398Z,22.47
2023-06-29T23:57:34.173Z,22.46
